createdAt,value
2023-01-04T00:05:57.260Z,1
2023-01-04T00:16:00.035Z,1
2023-01-04T00:25:57.127Z,1
2023-01-04T00:35:57.152Z,1
2023-01-04T00:45:57.096Z,1
2023-01-04T00:55:56.919Z,1
2023-01-04T01:05:56.832Z,1
2023-01-04T01:15:56.812Z,1
2023-01-04T01:25:56.652Z,1
2023-01-04T01:35:56.604Z,1
2023-01-04T01:45:56.527Z,1
2023-01-04T01:55:56.447Z,1
2023-01-04T02:05:56.403Z,7
2023-01-04T02:15:56.391Z,15
2023-01-04T02:25:56.245Z,1
2023-01-04T02:35:56.179Z,1
2023-01-04T02:45:56.080Z,1
2023-01-04T02:55:56.052Z,5
2023-01-04T03:05:55.977Z,16
2023-01-04T03:15:55.958Z,6
2023-01-04T03:25:55.813Z,8
2023-01-04T03:35:55.747Z,1
2023-01-04T03:45:55.763Z,1
2023-01-04T03:55:55.586Z,1
2023-01-04T04:05:55.549Z,5
2023-01-04T04:15:55.634Z,8
2023-01-04T04:25:55.433Z,1
2023-01-04T04:35:55.343Z,3
2023-01-04T04:45:55.472Z,1
2023-01-04T04:55:55.159Z,4
2023-01-04T05:05:55.096Z,14
2023-01-04T05:15:55.041Z,9
2023-01-04T05:25:54.968Z,2
2023-01-04T05:35:54.946Z,8
2023-01-04T05:45:54.946Z,3
2023-01-04T05:55:54.887Z,13
2023-01-04T06:05:54.806Z,10
2023-01-04T06:15:54.619Z,6
2023-01-04T06:25:54.548Z,14
2023-01-04T06:35:54.445Z,13
2023-01-04T06:45:54.520Z,8
2023-01-04T06:55:54.339Z,10
2023-01-04T07:05:54.348Z,10
2023-01-04T07:15:54.191Z,14
2023-01-04T07:25:54.147Z,14
2023-01-04T07:35:54.048Z,15
2023-01-04T07:45:54.007Z,21
2023-01-04T07:55:53.887Z,21
2023-01-04T08:05:53.847Z,30
2023-01-04T08:09:21.165Z,29
2023-01-04T08:19:20.937Z,31
2023-01-04T08:29:20.715Z,25
2023-01-04T08:39:20.617Z,20
2023-01-04T08:49:20.595Z,21
2023-01-04T08:59:20.521Z,25
2023-01-04T09:09:20.423Z,23
2023-01-04T09:19:22.408Z,24
2023-01-04T09:29:20.311Z,14
2023-01-04T09:39:23.384Z,14
2023-01-04T09:49:20.131Z,21
2023-01-04T09:59:20.061Z,26
2023-01-04T10:09:20.079Z,29
2023-01-04T10:20:59.579Z,26
2023-01-04T10:29:19.867Z,29
2023-01-04T10:39:19.873Z,32
2023-01-04T10:49:19.703Z,35
2023-01-04T10:59:19.689Z,38
2023-01-04T11:09:24.812Z,42
2023-01-04T11:19:19.479Z,41
2023-01-04T11:29:19.372Z,46
2023-01-04T11:39:19.438Z,47
2023-01-04T11:49:19.267Z,42
2023-01-04T11:59:25.180Z,45
2023-01-04T12:09:19.094Z,44
2023-01-04T12:19:19.043Z,44
2023-01-04T12:29:18.981Z,47
2023-01-04T12:39:18.881Z,50
2023-01-04T12:49:18.800Z,52
2023-01-04T12:59:26.323Z,49
2023-01-04T13:09:23.431Z,44
2023-01-04T13:19:18.607Z,44
2023-01-04T13:29:18.529Z,42
2023-01-04T13:39:18.483Z,52
2023-01-04T13:49:18.345Z,60
2023-01-04T13:59:18.302Z,78
2023-01-04T14:09:18.235Z,83
2023-01-04T14:19:18.201Z,99
2023-01-04T14:29:18.055Z,99
2023-01-04T14:39:17.986Z,99
2023-01-04T14:49:17.936Z,99
2023-01-04T14:59:17.894Z,99
2023-01-04T15:09:17.797Z,99
2023-01-04T15:19:17.696Z,99
2023-01-04T15:29:17.624Z,99
2023-01-04T15:39:17.581Z,99
2023-01-04T15:49:18.126Z,99
2023-01-04T15:59:17.386Z,88
2023-01-04T16:09:17.428Z,99
2023-01-04T16:19:18.053Z,99
2023-01-04T16:29:17.206Z,99
2023-01-04T16:39:17.142Z,99
2023-01-04T16:49:17.114Z,99
2023-01-04T16:59:16.993Z,99
2023-01-04T17:09:16.915Z,99
2023-01-04T17:19:16.915Z,99
2023-01-04T17:29:16.777Z,1
2023-01-04T17:39:16.678Z,99
2023-01-04T17:49:25.328Z,1
2023-01-04T17:59:16.571Z,1
2023-01-04T18:09:20.207Z,1
2023-01-04T18:19:16.493Z,99
2023-01-04T18:29:16.327Z,1
2023-01-04T18:39:16.277Z,1
2023-01-04T18:49:16.194Z,1
2023-01-04T18:59:16.088Z,1
2023-01-04T19:09:16.141Z,1
2023-01-04T19:19:15.953Z,1
2023-01-04T19:29:15.881Z,1
2023-01-04T19:39:15.837Z,1
2023-01-04T19:49:15.881Z,1
2023-01-04T19:59:15.670Z,1
2023-01-04T20:06:28.145Z,1
2023-01-04T20:16:27.853Z,1
2023-01-04T20:26:27.672Z,1
2023-01-04T20:36:27.628Z,1
2023-01-04T20:46:27.565Z,1
2023-01-04T20:56:27.474Z,1
2023-01-04T21:06:27.422Z,1
2023-01-04T21:16:27.345Z,1
2023-01-04T21:26:27.375Z,1
2023-01-04T21:36:27.226Z,1
2023-01-04T21:46:27.279Z,1
2023-01-04T21:56:27.065Z,1
2023-01-04T22:06:26.987Z,1
2023-01-04T22:16:27.023Z,1
2023-01-04T22:26:26.836Z,1
2023-01-04T22:36:26.777Z,1
2023-01-04T22:46:26.778Z,1
2023-01-04T22:56:26.586Z,1
2023-01-04T23:06:26.514Z,1
2023-01-04T23:16:32.200Z,99
2023-01-04T23:26:26.387Z,99
2023-01-04T23:36:26.318Z,99
2023-01-04T23:46:26.554Z,99
2023-01-04T23:56:26.493Z,99
